Time;durP1;ratioP1;P1;durP2;ratioP2;P2;SDS_P1;SDS_P2;PMS_P1;PMS_P2;Temp;Humidity;BMP_temperature;BMP_pressure;BME280_temperature;BME280_humidity;BME280_pressure;Samples;Min_cycle;Max_cycle;Signal;HPM_P1;HPM_P2
2021/04/18 00:00:47;;;;;;;4.70;4.20;;;;;;;12.09;63.96;101076.19;4948457;28;128017;-58
2021/04/18 00:03:14;;;;;;;5.00;4.20;;;;;;;12.07;63.67;101075.66;4963223;28;98132;-62
2021/04/18 00:05:40;;;;;;;5.93;4.55;;;;;;;12.07;64.04;101074.84;4962536;28;99145;-62
2021/04/18 00:08:06;;;;;;;4.75;3.92;;;;;;;12.04;64.20;101082.38;4962330;28;98649;-59
2021/04/18 00:10:37;;;;;;;5.22;4.50;;;;;;;11.97;64.40;101070.19;4962465;28;98179;-59
2021/04/18 00:13:04;;;;;;;6.20;4.38;;;;;;;12.01;63.80;101080.19;4962460;28;98038;-62
2021/04/18 00:15:30;;;;;;;5.55;4.30;;;;;;;11.98;63.95;101071.78;4961818;28;108132;-58
2021/04/18 00:17:56;;;;;;;5.20;4.35;;;;;;;11.97;64.06;101068.28;4962544;28;98976;-58
2021/04/18 00:20:22;;;;;;;5.95;4.70;;;;;;;11.96;64.05;101061.25;4960077;28;128283;-59
2021/04/18 00:22:48;;;;;;;5.55;4.53;;;;;;;11.96;64.29;101066.66;4960699;28;128078;-62
2021/04/18 00:25:16;;;;;;;5.63;4.25;;;;;;;11.93;64.29;101060.97;4954131;28;114153;-59
2021/04/18 00:27:44;;;;;;;5.03;3.90;;;;;;;11.89;64.49;101062.56;4942507;28;98285;-62
2021/04/18 00:30:12;;;;;;;5.57;4.15;;;;;;;11.84;64.33;101055.25;4941234;28;99330;-62
2021/04/18 00:32:39;;;;;;;5.15;4.18;;;;;;;11.86;64.28;101060.38;4939423;28;98032;-58
2021/04/18 00:35:07;;;;;;;4.53;4.13;;;;;;;11.80;64.59;101064.91;4941331;28;100079;-58
2021/04/18 00:37:33;;;;;;;4.88;4.05;;;;;;;11.78;64.46;101069.75;4939931;28;98427;-59
2021/04/18 00:39:59;;;;;;;5.80;4.70;;;;;;;11.73;64.48;101075.94;4957251;28;116616;-58
2021/04/18 00:42:25;;;;;;;6.07;4.53;;;;;;;11.75;64.85;101075.66;4961855;28;107220;-62
2021/04/18 00:44:51;;;;;;;4.72;4.13;;;;;;;11.73;64.63;101080.53;4960698;28;118935;-59
2021/04/18 00:47:17;;;;;;;6.22;4.32;;;;;;;11.69;64.55;101079.44;4959678;28;102677;-62
2021/04/18 00:49:45;;;;;;;5.82;4.43;;;;;;;11.70;64.71;101078.34;4959816;28;98344;-58
2021/04/18 00:52:11;;;;;;;4.22;3.80;;;;;;;11.70;64.76;101081.84;4961086;28;113722;-62
2021/04/18 00:54:37;;;;;;;4.45;4.03;;;;;;;11.72;64.59;101074.31;4944665;28;118914;-61
2021/04/18 00:57:04;;;;;;;5.63;4.30;;;;;;;11.73;64.43;101075.13;4942208;28;99015;-59
2021/04/18 00:59:30;;;;;;;5.68;4.30;;;;;;;11.75;64.19;101075.66;4939453;28;100627;-59
2021/04/18 01:01:56;;;;;;;4.38;3.97;;;;;;;11.75;64.24;101070.25;4922451;28;125170;-59
2021/04/18 01:04:22;;;;;;;5.22;4.15;;;;;;;11.74;64.58;101064.06;4939383;28;116566;-62
2021/04/18 01:06:48;;;;;;;5.95;4.40;;;;;;;11.73;64.72;101065.13;4940718;28;127798;-62
2021/04/18 01:09:14;;;;;;;5.15;4.15;;;;;;;11.73;64.62;101073.25;4940664;28;128460;-62
2021/04/18 01:11:40;;;;;;;5.65;4.43;;;;;;;11.75;64.21;101064.88;4939022;28;117050;-61
2021/04/18 01:14:06;;;;;;;4.88;4.18;;;;;;;11.75;64.69;101068.41;4940087;28;118750;-59
2021/04/18 01:16:32;;;;;;;6.00;4.40;;;;;;;11.74;64.24;101064.06;4940811;28;128065;-59
2021/04/18 01:18:58;;;;;;;4.82;4.20;;;;;;;11.76;64.44;101069.22;4940577;28;126649;-62
2021/04/18 01:21:24;;;;;;;6.18;4.43;;;;;;;11.75;64.22;101065.72;4943086;28;126361;-59
2021/04/18 01:23:51;;;;;;;5.38;4.10;;;;;;;11.76;64.35;101069.22;4959985;28;97723;-62
2021/04/18 01:26:17;;;;;;;5.63;4.18;;;;;;;11.76;64.19;101066.53;4960758;28;114210;-59
2021/04/18 01:28:43;;;;;;;5.78;4.10;;;;;;;11.77;64.76;101065.44;4956259;28;98490;-59
2021/04/18 01:31:09;;;;;;;4.72;4.15;;;;;;;11.75;63.95;101056.75;4942274;28;126679;-62
2021/04/18 01:33:35;;;;;;;5.22;3.90;;;;;;;11.75;64.64;101060.31;4960909;28;118616;-58
2021/04/18 01:36:04;;;;;;;4.55;4.13;;;;;;;11.74;64.25;101058.66;4961095;28;98225;-59
2021/04/18 01:38:31;;;;;;;5.47;3.85;;;;;;;11.76;64.46;101063.81;4958876;28;99225;-62
2021/04/18 01:40:59;;;;;;;5.25;4.13;;;;;;;11.75;64.70;101064.88;4961020;28;97999;-59
2021/04/18 01:43:26;;;;;;;5.78;4.05;;;;;;;11.73;64.61;101062.44;4959406;28;100346;-61
2021/04/18 01:45:52;;;;;;;5.03;4.18;;;;;;;11.75;64.30;101068.41;4959802;28;117854;-62
2021/04/18 01:48:18;;;;;;;4.15;3.75;;;;;;;11.75;64.15;101064.88;4958199;28;127878;-62
2021/04/18 01:50:49;;;;;;;4.00;3.60;;;;;;;11.74;64.67;101064.06;4940510;28;112756;-62
2021/04/18 01:53:15;;;;;;;4.97;4.10;;;;;;;11.73;64.56;101067.84;4940008;28;97732;-63
2021/04/18 01:55:41;;;;;;;5.82;4.25;;;;;;;11.73;64.08;101072.44;4939610;28;128672;-62
2021/04/18 01:58:07;;;;;;;5.50;4.03;;;;;;;11.74;64.23;101074.84;4953441;28;128730;-59
2021/04/18 02:00:34;;;;;;;4.88;3.95;;;;;;;11.72;64.06;101071.63;4960668;28;98048;-59
2021/04/18 02:03:00;;;;;;;5.25;4.03;;;;;;;11.71;64.07;101066.47;4964871;28;97687;-59
2021/04/18 02:05:29;;;;;;;4.40;4.00;;;;;;;11.67;64.63;101068.91;4964207;28;98271;-62
2021/04/18 02:07:55;;;;;;;4.53;4.07;;;;;;;11.69;64.49;101065.94;4938505;28;98498;-59
2021/04/18 02:10:21;;;;;;;5.03;4.50;;;;;;;11.65;64.30;101065.63;4944876;28;113498;-59
2021/04/18 02:12:47;;;;;;;4.70;4.15;;;;;;;11.64;64.38;101071.31;4964071;28;116940;-59
2021/04/18 02:15:14;;;;;;;5.75;4.47;;;;;;;11.62;64.85;101073.44;4964187;28;98575;-62
2021/04/18 02:17:41;;;;;;;5.72;4.00;;;;;;;11.61;64.84;101079.91;4961952;28;98849;-62
2021/04/18 02:20:07;;;;;;;5.45;4.40;;;;;;;11.59;64.73;101077.44;4963112;28;102177;-60
2021/04/18 02:22:34;;;;;;;5.57;4.20;;;;;;;11.60;64.52;101081.00;4964915;28;97746;-59
2021/04/18 02:25:01;;;;;;;5.13;4.25;;;;;;;11.57;64.29;101084.19;4963528;28;99343;-62
2021/04/18 02:27:27;;;;;;;5.20;4.43;;;;;;;11.59;64.90;101076.63;4956882;28;98272;-62
2021/04/18 02:29:56;;;;;;;5.05;4.53;;;;;;;11.58;64.86;101075.03;4943619;28;98725;-62
2021/04/18 02:32:22;;;;;;;4.70;4.20;;;;;;;11.61;64.42;101072.63;4927200;28;98033;-59
2021/04/18 02:34:49;;;;;;;5.15;4.45;;;;;;;11.58;64.58;101075.03;4941421;28;112328;-62
2021/04/18 02:37:16;;;;;;;5.32;4.50;;;;;;;11.56;64.23;101059.09;4947068;28;98510;-62
2021/04/18 02:39:42;;;;;;;5.18;4.43;;;;;;;11.52;64.66;101064.19;4963281;28;97851;-62
2021/04/18 02:42:08;;;;;;;5.30;4.75;;;;;;;11.52;64.43;101064.19;4963300;28;117573;-59
2021/04/18 02:44:34;;;;;;;5.80;4.82;;;;;;;11.45;64.51;101055.50;4961131;28;98096;-60
2021/04/18 02:47:00;;;;;;;5.93;4.45;;;;;;;11.45;65.18;101057.38;4963938;28;107933;-62
2021/04/18 02:49:26;;;;;;;6.05;4.50;;;;;;;11.40;65.22;101052.78;4962058;28;126751;-59
2021/04/18 02:51:52;;;;;;;5.32;4.65;;;;;;;11.37;64.76;101055.97;4963321;28;118098;-59
2021/04/18 02:54:18;;;;;;;5.22;4.72;;;;;;;11.33;65.28;101048.66;4944237;28;105889;-62
2021/04/18 02:56:44;;;;;;;5.28;4.75;;;;;;;11.29;64.85;101049.16;4942280;28;127746;-59
2021/04/18 02:59:10;;;;;;;5.25;4.68;;;;;;;11.27;64.97;101037.81;4942882;28;125368;-59
2021/04/18 03:01:36;;;;;;;5.35;4.72;;;;;;;11.24;65.18;101043.75;4943541;28;117715;-62
2021/04/18 03:04:04;;;;;;;5.15;4.53;;;;;;;11.26;64.95;101049.69;4941693;28;98167;-59
2021/04/18 03:06:30;;;;;;;5.82;4.97;;;;;;;11.25;64.75;101048.06;4942450;28;118412;-62
2021/04/18 03:08:56;;;;;;;5.75;4.72;;;;;;;11.26;64.89;101048.88;4942012;28;113366;-59
2021/04/18 03:11:23;;;;;;;5.10;4.60;;;;;;;11.25;65.11;101048.06;4940804;28;119620;-62
2021/04/18 03:13:49;;;;;;;5.50;4.43;;;;;;;11.24;64.41;101038.34;4956881;28;102883;-59
2021/04/18 03:16:15;;;;;;;5.60;4.47;;;;;;;11.27;65.15;101045.09;4961804;28;127498;-59
2021/04/18 03:18:41;;;;;;;6.43;4.60;;;;;;;11.26;64.70;101040.78;4960893;28;126480;-59
2021/04/18 03:21:07;;;;;;;5.13;4.53;;;;;;;11.28;64.35;101044.03;4947014;28;117371;-59
2021/04/18 03:23:33;;;;;;;5.65;4.88;;;;;;;11.25;64.35;101045.34;4942829;28;120248;-62
2021/04/18 03:25:59;;;;;;;5.25;4.10;;;;;;;11.28;64.56;101036.75;4943014;28;98975;-62
2021/04/18 03:28:25;;;;;;;4.97;4.57;;;;;;;11.31;64.34;101041.63;4942428;28;122372;-62
2021/04/18 03:30:51;;;;;;;4.90;4.40;;;;;;;11.36;64.01;101040.03;4943211;28;115603;-62
2021/04/18 03:33:18;;;;;;;5.10;4.25;;;;;;;11.38;64.49;101037.91;4928965;28;127013;-59
2021/04/18 03:35:44;;;;;;;5.13;4.38;;;;;;;11.39;63.79;101029.53;4941941;28;127045;-62
2021/04/18 03:38:10;;;;;;;5.45;4.20;;;;;;;11.40;63.66;101033.88;4942279;28;126265;-62
2021/04/18 03:40:38;;;;;;;5.22;4.30;;;;;;;11.42;63.63;101025.50;4942297;28;107731;-62
2021/04/18 03:43:04;;;;;;;4.38;3.97;;;;;;;11.44;63.89;101026.88;4943627;28;97773;-59
2021/04/18 03:45:30;;;;;;;5.15;4.05;;;;;;;11.44;63.77;101026.88;4942484;28;98896;-62
2021/04/18 03:47:56;;;;;;;4.95;3.90;;;;;;;11.45;64.11;101030.41;4943771;28;127111;-64
2021/04/18 03:50:22;;;;;;;4.45;4.03;;;;;;;11.45;63.71;101033.09;4959418;28;116159;-62
2021/04/18 03:52:49;;;;;;;4.35;3.95;;;;;;;11.45;64.04;101033.09;4953269;28;99266;-59
2021/04/18 03:55:15;;;;;;;4.47;3.75;;;;;;;11.46;63.81;101040.91;4942370;28;98472;-62
2021/04/18 03:57:41;;;;;;;4.75;4.10;;;;;;;11.47;64.01;101031.75;4942403;28;104320;-62
2021/04/18 04:00:08;;;;;;;4.20;3.80;;;;;;;11.49;63.98;101039.59;4935724;28;98444;-62
2021/04/18 04:02:35;;;;;;;4.45;3.80;;;;;;;11.46;63.79;101040.91;4940179;28;98128;-59
2021/04/18 04:05:01;;;;;;;4.28;3.67;;;;;;;11.50;63.73;101036.63;4941450;28;99258;-63
2021/04/18 04:07:27;;;;;;;4.07;3.38;;;;;;;11.49;63.40;101039.59;4947181;28;105049;-59
2021/04/18 04:09:53;;;;;;;3.92;3.53;;;;;;;11.48;63.58;101037.97;4963119;28;97776;-59
2021/04/18 04:12:19;;;;;;;3.60;3.30;;;;;;;11.49;63.83;101042.31;4961444;28;127302;-59
2021/04/18 04:14:45;;;;;;;3.55;3.25;;;;;;;11.51;63.95;101040.13;4961630;28;126248;-62
2021/04/18 04:17:11;;;;;;;3.85;3.50;;;;;;;11.48;63.91;101041.50;4961319;28;128207;-62
2021/04/18 04:19:37;;;;;;;3.67;3.38;;;;;;;11.48;63.22;101033.38;4962073;28;107515;-62
2021/04/18 04:22:04;;;;;;;4.22;3.42;;;;;;;11.47;63.43;101039.84;4961669;28;127326;-59
2021/04/18 04:24:30;;;;;;;4.32;3.40;;;;;;;11.50;63.98;101043.91;4961998;28;98465;-62
2021/04/18 04:26:56;;;;;;;4.15;3.42;;;;;;;11.49;63.49;101043.09;4960473;28;97761;-62
2021/04/18 04:29:22;;;;;;;4.20;3.40;;;;;;;11.49;63.64;101048.50;4955177;28;118578;-62
2021/04/18 04:31:48;;;;;;;4.90;3.80;;;;;;;11.49;63.42;101048.50;4941722;28;127582;-62
2021/04/18 04:34:14;;;;;;;4.07;3.67;;;;;;;11.50;63.79;101054.72;4942650;28;99888;-59
2021/04/18 04:36:40;;;;;;;4.05;3.67;;;;;;;11.51;63.94;101059.88;4941367;28;128184;-59
2021/04/18 04:39:06;;;;;;;4.00;3.47;;;;;;;11.53;64.26;101056.91;4942672;28;98029;-62
2021/04/18 04:41:33;;;;;;;4.30;3.83;;;;;;;11.55;63.53;101065.53;4940484;28;98633;-62
2021/04/18 04:43:59;;;;;;;4.18;3.78;;;;;;;11.55;63.36;101063.69;4941798;28;124766;-59
2021/04/18 04:46:25;;;;;;;4.55;3.70;;;;;;;11.55;63.55;101066.38;4942025;28;105515;-59
2021/04/18 04:48:51;;;;;;;4.40;3.85;;;;;;;11.57;63.67;101060.72;4954588;28;97883;-62
2021/04/18 04:51:17;;;;;;;4.40;3.63;;;;;;;11.58;63.81;101051.53;4959897;28;128344;-62
2021/04/18 04:53:43;;;;;;;4.35;3.92;;;;;;;11.59;63.56;101052.34;4960530;28;117649;-62
2021/04/18 04:56:09;;;;;;;4.20;3.80;;;;;;;11.62;63.63;101049.94;4960301;28;126244;-62
2021/04/18 04:58:35;;;;;;;4.57;4.10;;;;;;;11.62;64.02;101052.63;4961319;28;113516;-59
2021/04/18 05:01:01;;;;;;;4.13;3.72;;;;;;;11.65;63.44;101043.22;4960920;28;128423;-62
2021/04/18 05:03:28;;;;;;;5.68;4.25;;;;;;;11.67;63.74;101044.59;4959559;28;127985;-62
2021/04/18 05:05:54;;;;;;;4.70;4.20;;;;;;;11.69;63.34;101045.13;4961576;28;97871;-62
2021/04/18 05:08:20;;;;;;;5.15;4.30;;;;;;;11.71;63.82;101045.69;4952958;28;97825;-62
2021/04/18 05:10:46;;;;;;;4.80;4.30;;;;;;;11.74;64.00;101044.34;4941406;28;98600;-59
2021/04/18 05:13:13;;;;;;;4.90;4.40;;;;;;;11.76;63.86;101044.91;4940772;28;127610;-59
2021/04/18 05:15:39;;;;;;;5.70;4.85;;;;;;;11.76;63.97;101036.81;4940959;28;98719;-62
2021/04/18 05:18:05;;;;;;;5.60;5.00;;;;;;;11.78;63.73;101042.75;4941834;28;97825;-59
2021/04/18 05:20:31;;;;;;;6.38;4.80;;;;;;;11.76;63.49;101036.81;4940899;28;98474;-59
2021/04/18 05:22:58;;;;;;;5.53;4.60;;;;;;;11.76;63.97;101031.41;4940934;28;128429;-59
2021/04/18 05:25:24;;;;;;;5.43;4.80;;;;;;;11.76;64.05;101034.09;4941007;28;105508;-62
2021/04/18 05:27:50;;;;;;;5.95;5.00;;;;;;;11.76;64.01;101037.63;4939745;28;117712;-62
2021/04/18 05:30:17;;;;;;;6.45;5.00;;;;;;;11.75;63.67;101036.00;4940007;28;128279;-59
2021/04/18 05:32:43;;;;;;;5.40;4.78;;;;;;;11.77;63.66;101038.44;4941576;28;111352;-62
2021/04/18 05:35:10;;;;;;;6.70;5.22;;;;;;;11.79;63.88;101041.69;4940902;28;127392;-59
2021/04/18 05:37:36;;;;;;;8.45;5.30;;;;;;;11.79;64.06;101036.28;4945639;28;97848;-59
2021/04/18 05:40:03;;;;;;;7.72;5.75;;;;;;;11.82;63.83;101045.75;4944570;28;100446;-60
2021/04/18 05:42:29;;;;;;;6.38;4.97;;;;;;;11.85;63.57;101045.25;4942805;28;99065;-59
2021/04/18 05:44:56;;;;;;;9.32;5.85;;;;;;;11.84;63.92;101044.44;4944429;28;115808;-62
2021/04/18 05:47:22;;;;;;;6.40;5.50;;;;;;;11.85;63.97;101046.06;4945679;28;97987;-62
2021/04/18 05:49:48;;;;;;;6.80;5.60;;;;;;;11.88;63.94;101037.44;4964432;28;98660;-62
2021/04/18 05:52:14;;;;;;;6.05;5.45;;;;;;;11.90;63.54;101043.38;4964548;28;99121;-62
2021/04/18 05:54:43;;;;;;;6.18;5.45;;;;;;;11.90;63.66;101045.28;4963267;28;118727;-62
2021/04/18 05:57:09;;;;;;;6.40;5.80;;;;;;;11.92;63.94;101052.06;4963748;28;117865;-59
2021/04/18 05:59:35;;;;;;;6.53;5.53;;;;;;;11.94;64.11;101052.59;4961715;28;99153;-62
2021/04/18 06:02:01;;;;;;;6.45;5.85;;;;;;;11.96;63.92;101055.84;4960839;28;98322;-59
2021/04/18 06:04:27;;;;;;;6.88;5.93;;;;;;;11.97;63.85;101057.47;4958272;28;105408;-59
2021/04/18 06:06:54;;;;;;;7.03;5.78;;;;;;;11.99;63.74;101063.44;4961162;28;98172;-59
2021/04/18 06:09:20;;;;;;;6.80;5.80;;;;;;;12.01;63.97;101055.88;4959257;28;99030;-62
2021/04/18 06:11:46;;;;;;;6.38;5.78;;;;;;;12.03;64.11;101058.34;4960881;28;98431;-62
2021/04/18 06:14:12;;;;;;;6.43;5.75;;;;;;;12.04;63.81;101049.94;4960824;28;127449;-61
2021/04/18 06:16:38;;;;;;;6.80;6.10;;;;;;;12.07;63.96;101061.31;4960002;28;118572;-59
2021/04/18 06:19:04;;;;;;;6.18;5.35;;;;;;;12.10;64.06;101067.00;4960677;28;98927;-62
2021/04/18 06:21:30;;;;;;;6.53;5.82;;;;;;;12.14;63.47;101064.56;4958333;28;98644;-59
2021/04/18 06:23:56;;;;;;;6.60;5.90;;;;;;;12.18;63.44;101063.81;4954078;28;125886;-59
2021/04/18 06:26:22;;;;;;;6.47;5.88;;;;;;;12.25;63.65;101058.16;4960151;28;118276;-62
2021/04/18 06:28:48;;;;;;;6.88;5.97;;;;;;;12.32;63.36;101050.59;4959195;28;128423;-62
2021/04/18 06:31:17;;;;;;;8.05;6.07;;;;;;;12.38;63.32;101052.28;4956952;28;127633;-59
2021/04/18 06:33:43;;;;;;;7.32;5.97;;;;;;;12.47;63.16;101052.56;4959895;28;128440;-59
2021/04/18 06:36:09;;;;;;;6.97;6.20;;;;;;;12.49;63.35;101055.78;4959818;28;117401;-62
2021/04/18 06:38:36;;;;;;;6.22;5.57;;;;;;;12.50;63.23;101060.16;4958737;28;102054;-60
2021/04/18 06:41:02;;;;;;;7.05;6.05;;;;;;;12.49;63.50;101062.00;4960271;28;99912;-62
2021/04/18 06:43:28;;;;;;;8.43;6.40;;;;;;;12.48;63.93;101065.81;4957785;28;127679;-62
2021/04/18 06:45:54;;;;;;;7.45;6.57;;;;;;;12.48;63.77;101060.41;4960414;28;98025;-59
2021/04/18 06:48:21;;;;;;;7.28;6.30;;;;;;;12.48;63.63;101068.50;4960071;28;98461;-62
2021/04/18 06:50:47;;;;;;;6.95;6.25;;;;;;;12.47;64.03;101057.97;4958581;28;128344;-62
2021/04/18 06:53:13;;;;;;;7.47;6.00;;;;;;;12.46;64.05;101064.47;4959497;28;114072;-62
2021/04/18 06:55:39;;;;;;;7.63;6.20;;;;;;;12.44;63.77;101066.59;4960261;28;98918;-59
2021/04/18 06:58:05;;;;;;;7.32;6.03;;;;;;;12.41;63.85;101070.63;4959507;28;99301;-60
2021/04/18 07:00:32;;;;;;;6.65;5.85;;;;;;;12.37;64.09;101066.03;4959795;28;98589;-59
2021/04/18 07:03:21;;;;;;;7.32;6.63;;;;;;;12.34;64.67;101070.09;4956993;28;111692;-62
2021/04/18 07:05:49;;;;;;;7.35;6.35;;;;;;;12.33;64.69;101068.44;4960113;28;98025;-59
2021/04/18 07:08:35;;;;;;;7.60;6.47;;;;;;;12.33;64.73;101068.44;4958576;28;114260;-62
2021/04/18 07:11:19;;;;;;;8.35;6.68;;;;;;;12.32;64.93;101069.53;4960117;28;98643;-59
2021/04/18 07:13:46;;;;;;;7.63;6.75;;;;;;;12.34;64.74;101067.41;4959540;28;98099;-63
2021/04/18 07:16:30;;;;;;;8.40;7.00;;;;;;;12.37;64.78;101079.53;4959713;28;105795;-62
2021/04/18 07:18:57;;;;;;;7.38;6.57;;;;;;;12.38;64.44;101076.59;4937787;28;98463;-59
2021/04/18 07:21:23;;;;;;;8.50;6.72;;;;;;;12.35;65.06;101070.91;4941316;28;98700;-62
2021/04/18 07:23:49;;;;;;;8.25;6.97;;;;;;;12.36;64.75;101067.13;4958747;28;126554;-62
2021/04/18 07:26:27;;;;;;;7.80;6.95;;;;;;;12.37;64.88;101064.13;4959473;28;98032;-63
2021/04/18 07:29:12;;;;;;;8.43;7.43;;;;;;;12.36;64.69;101064.41;4957315;28;98509;-59
2021/04/18 07:31:38;;;;;;;9.02;7.90;;;;;;;12.37;64.86;101066.03;4954077;28;98873;-59
2021/04/18 07:34:15;;;;;;;8.57;7.30;;;;;;;12.36;64.89;101065.22;4958539;28;127208;-63
2021/04/18 07:36:47;;;;;;;8.30;7.22;;;;;;;12.34;64.95;101062.00;4952258;28;98097;-62
2021/04/18 07:39:14;;;;;;;9.32;8.15;;;;;;;12.33;65.25;101063.03;4954677;28;99161;-62
2021/04/18 07:41:45;;;;;;;8.80;7.80;;;;;;;12.34;65.18;101059.28;4959398;28;98020;-62
2021/04/18 07:44:18;;;;;;;8.20;7.22;;;;;;;12.36;65.48;101059.81;4959168;28;98224;-59
2021/04/18 07:46:50;;;;;;;8.55;7.65;;;;;;;12.41;65.40;101059.00;4959206;28;97826;-59
2021/04/18 07:49:17;;;;;;;9.27;8.30;;;;;;;12.47;64.72;101058.78;4959230;28;98732;-59
2021/04/18 07:51:45;;;;;;;9.43;8.38;;;;;;;12.51;64.68;101064.47;4957700;28;99250;-63
2021/04/18 07:54:13;;;;;;;9.57;8.15;;;;;;;12.53;64.63;101057.69;4955794;28;98863;-59
2021/04/18 07:56:45;;;;;;;9.18;8.07;;;;;;;12.56;64.84;101050.97;4959669;28;98047;-59
2021/04/18 07:59:17;;;;;;;;;;;;;;;12.64;64.74;101050.44;4957168;28;100431;-63
2021/04/18 08:01:43;;;;;;;9.07;8.17;;;;;;;12.60;64.80;101053.94;4959318;28;98835;-64
2021/04/18 08:04:10;;;;;;;12.13;8.60;;;;;;;12.60;64.86;101049.34;4959229;28;107181;-63
2021/04/18 08:06:40;;;;;;;9.98;8.75;;;;;;;12.60;64.95;101049.34;4938083;28;98178;-63
2021/04/18 08:09:19;;;;;;;10.75;9.25;;;;;;;12.65;64.98;101043.13;4941080;28;98417;-63
2021/04/18 08:12:10;;;;;;;12.30;9.13;;;;;;;12.66;65.30;101042.88;4957694;28;110245;-62
2021/04/18 08:14:38;;;;;;;13.15;9.27;;;;;;;12.66;65.70;101044.78;4958168;28;97903;-59
2021/04/18 08:17:12;;;;;;;11.48;9.40;;;;;;;12.67;65.24;101051.81;4959199;28;98101;-59
2021/04/18 08:19:58;;;;;;;11.85;9.43;;;;;;;12.68;65.28;101048.00;4941791;28;98604;-59
2021/04/18 08:22:24;;;;;;;11.23;9.27;;;;;;;12.69;65.45;101044.22;4958716;28;98524;-62
2021/04/18 08:25:10;;;;;;;10.95;9.13;;;;;;;12.68;65.32;101040.72;4958730;28;97966;-59
2021/04/18 08:27:59;;;;;;;11.10;9.18;;;;;;;12.75;65.39;101038.56;4958416;28;99365;-63
2021/04/18 08:30:25;;;;;;;10.77;9.30;;;;;;;12.80;65.22;101039.66;4957835;28;99055;-59
2021/04/18 08:32:52;;;;;;;11.07;8.90;;;;;;;12.83;65.26;101039.13;4940208;28;114646;-59
2021/04/18 08:35:24;;;;;;;10.93;8.77;;;;;;;12.85;65.21;101035.06;4958122;28;97899;-63
2021/04/18 08:38:11;;;;;;;10.50;9.25;;;;;;;12.92;65.17;101026.69;4958724;28;98116;-63
2021/04/18 08:40:38;;;;;;;10.55;8.70;;;;;;;12.93;65.22;101028.28;4958143;28;98387;-62
2021/04/18 08:43:21;;;;;;;12.15;9.10;;;;;;;12.97;65.08;101032.13;4958074;28;114451;-59
2021/04/18 08:45:51;;;;;;;10.90;8.88;;;;;;;13.03;65.07;101029.13;4959044;28;98183;-59
2021/04/18 08:48:17;;;;;;;10.32;8.18;;;;;;;13.15;64.80;101028.84;4957072;28;105286;-59
2021/04/18 08:50:56;;;;;;;9.98;8.02;;;;;;;13.25;64.57;101028.91;4958143;28;98530;-62
2021/04/18 08:53:23;;;;;;;9.23;7.90;;;;;;;13.34;64.29;101023.75;4959532;28;98759;-59
2021/04/18 08:55:58;;;;;;;10.25;8.13;;;;;;;13.42;64.37;101027.78;4957900;28;107065;-59
2021/04/18 08:58:38;;;;;;;9.27;7.57;;;;;;;13.46;64.41;101028.88;4956570;28;98073;-59
2021/04/18 09:01:11;;;;;;;8.13;7.32;;;;;;;13.48;64.41;101032.13;4957306;28;98613;-59
2021/04/18 09:03:39;;;;;;;8.68;7.78;;;;;;;13.49;64.47;101039.97;4955943;28;98468;-59
2021/04/18 09:06:23;;;;;;;8.23;7.32;;;;;;;13.51;64.80;101042.41;4958239;28;98277;-62
2021/04/18 09:08:53;;;;;;;7.90;7.10;;;;;;;13.57;64.69;101038.63;4956990;28;97991;-59
2021/04/18 09:11:19;;;;;;;7.68;6.88;;;;;;;13.57;64.58;101040.50;4959005;28;125596;-59
2021/04/18 09:14:12;;;;;;;7.97;6.90;;;;;;;13.62;64.70;101044.00;4961350;28;98648;-59
2021/04/18 09:16:39;;;;;;;7.38;6.15;;;;;;;13.54;64.85;101041.06;4956559;28;127014;-62
2021/04/18 09:19:28;;;;;;;7.75;6.57;;;;;;;13.57;65.29;101045.94;4961816;28;97932;-59
2021/04/18 09:22:09;;;;;;;6.93;6.22;;;;;;;13.45;65.53;101041.59;4959650;28;97966;-61
2021/04/18 09:25:07;;;;;;;6.90;6.20;;;;;;;13.38;65.57;101043.78;4961400;28;99056;-59
2021/04/18 09:27:46;;;;;;;6.50;5.85;;;;;;;13.37;65.55;101050.28;4955838;28;98729;-62
2021/04/18 09:30:16;;;;;;;6.93;6.22;;;;;;;13.37;65.62;101044.88;4961440;28;98115;-59
2021/04/18 09:32:50;;;;;;;6.45;5.85;;;;;;;13.49;65.34;101031.03;4961500;28;106350;-58
2021/04/18 09:35:22;;;;;;;6.78;5.82;;;;;;;13.64;64.81;101032.91;4961246;28;106757;-59
2021/04/18 09:37:53;;;;;;;5.97;5.37;;;;;;;13.71;64.81;101019.88;4961579;28;98399;-59
2021/04/18 09:40:21;;;;;;;6.00;5.40;;;;;;;13.81;64.23;101028.00;4958841;28;98169;-62
2021/04/18 09:42:50;;;;;;;5.90;5.30;;;;;;;13.92;64.11;101023.38;4958945;28;98993;-62
2021/04/18 09:45:22;;;;;;;5.20;4.70;;;;;;;13.99;63.85;101021.19;4960134;28;98872;-59
2021/04/18 09:47:53;;;;;;;6.07;4.90;;;;;;;14.03;64.02;101021.41;4950004;28;98327;-59
2021/04/18 09:50:22;;;;;;;5.13;4.63;;;;;;;14.06;64.24;101015.44;4954772;28;102025;-59
2021/04/18 09:52:48;;;;;;;5.57;4.88;;;;;;;14.19;63.80;101017.56;4961270;28;98666;-62
2021/04/18 09:55:26;;;;;;;4.80;4.30;;;;;;;14.40;63.23;101010.94;4960352;28;99010;-59
2021/04/18 09:57:56;;;;;;;4.75;4.30;;;;;;;14.52;63.54;101013.34;4960928;28;98237;-59
2021/04/18 10:00:29;;;;;;;4.35;3.72;;;;;;;14.59;62.87;101007.63;4960941;28;105572;-59
2021/04/18 10:03:13;;;;;;;4.30;3.90;;;;;;;14.57;63.68;101010.59;4960319;28;98617;-59
2021/04/18 10:05:51;;;;;;;4.43;4.03;;;;;;;14.43;64.05;101020.44;4947885;28;98532;-62
2021/04/18 10:08:26;;;;;;;4.65;4.25;;;;;;;14.30;64.70;101023.75;4952964;28;98061;-62
2021/04/18 10:10:58;;;;;;;3.90;3.50;;;;;;;14.14;65.26;101023.81;4959168;28;97954;-63
2021/04/18 10:13:54;;;;;;;4.32;3.78;;;;;;;14.04;65.41;101023.84;4959375;28;98640;-62
2021/04/18 10:16:40;;;;;;;4.07;3.42;;;;;;;13.99;65.59;101023.88;4960376;28;98608;-62
2021/04/18 10:19:09;;;;;;;4.13;3.72;;;;;;;13.91;65.68;101021.72;4959344;28;98474;-63
2021/04/18 10:21:35;;;;;;;3.53;3.20;;;;;;;13.90;65.74;101020.09;4960369;28;98999;-62
2021/04/18 10:24:01;;;;;;;3.15;2.85;;;;;;;13.90;65.72;101026.34;4960452;28;98325;-59
2021/04/18 10:26:28;;;;;;;3.50;2.80;;;;;;;14.00;65.61;101026.31;4941611;28;110652;-61
2021/04/18 10:28:55;;;;;;;3.15;2.85;;;;;;;14.10;65.15;101022.72;4958892;28;98405;-61
2021/04/18 10:31:23;;;;;;;3.17;2.88;;;;;;;14.12;65.11;101023.28;4959377;28;98133;-59
2021/04/18 10:33:49;;;;;;;3.03;2.72;;;;;;;14.18;64.65;101027.56;4965330;28;99177;-59
2021/04/18 10:36:15;;;;;;;2.75;2.40;;;;;;;14.19;64.80;101021.09;4958728;28;128063;-62
2021/04/18 10:38:42;;;;;;;2.58;2.38;;;;;;;14.24;64.56;101014.81;4960834;28;98133;-59
2021/04/18 10:41:08;;;;;;;2.83;2.55;;;;;;;14.33;64.32;101018.56;4960450;28;97844;-59
2021/04/18 10:43:34;;;;;;;2.72;2.40;;;;;;;14.34;64.69;101016.66;4960163;28;98120;-62
2021/04/18 10:46:00;;;;;;;3.10;2.78;;;;;;;14.20;64.90;101013.75;4959777;28;98815;-62
2021/04/18 10:48:27;;;;;;;2.95;2.65;;;;;;;14.15;65.19;101024.63;4959319;28;118005;-59
2021/04/18 10:50:53;;;;;;;2.67;2.17;;;;;;;14.05;65.41;101025.47;4957241;28;97850;-58
2021/04/18 10:53:20;;;;;;;2.70;2.40;;;;;;;13.98;65.89;101020.34;4956173;28;107996;-59
2021/04/18 10:55:46;;;;;;;2.85;2.33;;;;;;;13.90;65.96;101020.09;4957885;28;98189;-62
2021/04/18 10:58:14;;;;;;;2.58;2.20;;;;;;;13.80;66.22;101017.44;4960146;28;98437;-59
2021/04/18 11:00:41;;;;;;;2.95;2.65;;;;;;;13.72;66.47;101022.34;4959521;28;99837;-62
2021/04/18 11:03:07;;;;;;;2.63;2.05;;;;;;;13.67;66.75;101016.91;4953610;28;107329;-62
2021/04/18 11:05:33;;;;;;;2.88;2.58;;;;;;;13.67;66.70;101013.38;4954973;28;104395;-62
2021/04/18 11:07:59;;;;;;;2.53;2.22;;;;;;;13.72;66.34;101007.97;4959000;28;111819;-59
2021/04/18 11:10:26;;;;;;;3.65;2.53;;;;;;;13.78;66.03;101012.28;4959443;28;119335;-59
2021/04/18 11:12:52;;;;;;;3.25;2.47;;;;;;;13.81;66.17;101009.03;4957754;28;128134;-59
2021/04/18 11:15:18;;;;;;;2.65;2.33;;;;;;;13.91;65.56;101013.59;4954893;28;126981;-62
2021/04/18 11:17:44;;;;;;;2.33;2.13;;;;;;;14.02;65.23;101004.34;4956842;28;98233;-62
2021/04/18 11:20:12;;;;;;;2.67;2.40;;;;;;;14.10;65.32;101003.75;4941419;28;97870;-59
2021/04/18 11:22:39;;;;;;;2.47;2.00;;;;;;;14.13;65.12;101005.13;4936591;28;109519;-62
2021/04/18 11:25:11;;;;;;;2.38;2.13;;;;;;;14.13;65.30;101003.22;4956256;28;98305;-59
2021/04/18 11:27:38;;;;;;;2.50;2.30;;;;;;;14.28;64.75;101009.66;4956273;28;98852;-62